createdAt,value
2019-05-25T00:01:10.594Z,31.60
2019-05-25T00:03:39.435Z,31.60
2019-05-25T00:06:06.231Z,31.60
2019-05-25T00:08:33.501Z,31.50
2019-05-25T00:11:00.732Z,31.50
2019-05-25T00:13:27.729Z,31.50
2019-05-25T00:15:54.465Z,31.50
2019-05-25T00:18:21.797Z,31.50
2019-05-25T00:20:48.543Z,31.50
2019-05-25T00:23:15.470Z,31.50
2019-05-25T00:25:42.520Z,31.40
2019-05-25T00:28:09.788Z,31.50
2019-05-25T00:30:36.713Z,31.50
2019-05-25T00:33:03.999Z,31.50
2019-05-25T00:35:31.394Z,31.60
2019-05-25T00:37:58.100Z,31.60
2019-05-25T00:40:25.382Z,31.70
2019-05-25T00:42:52.282Z,31.70
2019-05-25T00:45:19.390Z,31.70
2019-05-25T00:47:46.613Z,31.60
2019-05-25T00:50:14.130Z,31.60
2019-05-25T00:52:41.075Z,31.50
2019-05-25T00:55:08.864Z,31.50
2019-05-25T00:57:36.077Z,31.40
2019-05-25T01:00:07.081Z,31.40
2019-05-25T01:02:37.391Z,31.30
2019-05-25T01:05:04.480Z,31.30
2019-05-25T01:07:31.026Z,31.20
2019-05-25T01:09:58.309Z,31.20
2019-05-25T01:12:26.334Z,31.10
2019-05-25T01:14:53.187Z,31.10
2019-05-25T01:17:20.703Z,31.10
2019-05-25T01:19:47.444Z,31.10
2019-05-25T01:22:14.137Z,31.10
2019-05-25T01:24:44.363Z,31.00
2019-05-25T01:27:09.788Z,31.00
2019-05-25T01:29:36.541Z,30.90
2019-05-25T01:32:03.748Z,30.90
2019-05-25T01:34:30.653Z,30.90
2019-05-25T01:36:57.990Z,30.90
2019-05-25T01:39:25.341Z,30.80
2019-05-25T01:41:52.154Z,30.80
2019-05-25T01:44:20.196Z,30.80
2019-05-25T01:46:47.368Z,30.80
2019-05-25T01:49:14.248Z,30.80
2019-05-25T01:51:41.101Z,30.80
2019-05-25T01:54:08.067Z,30.80
2019-05-25T01:56:34.791Z,30.70
2019-05-25T01:59:01.522Z,30.70
2019-05-25T02:01:28.599Z,30.70
2019-05-25T02:03:55.311Z,30.70
2019-05-25T02:06:22.190Z,30.80
2019-05-25T02:08:49.440Z,30.80
2019-05-25T02:11:16.490Z,30.90
2019-05-25T02:13:43.722Z,30.90
2019-05-25T02:16:10.683Z,30.90
2019-05-25T02:18:37.417Z,30.90
2019-05-25T02:21:03.990Z,30.90
2019-05-25T02:23:31.291Z,30.90
2019-05-25T02:25:57.684Z,30.90
2019-05-25T02:28:24.486Z,30.90
2019-05-25T02:30:52.252Z,30.90
2019-05-25T02:33:19.002Z,30.90
2019-05-25T02:35:45.800Z,30.80
2019-05-25T02:38:12.990Z,30.70
2019-05-25T02:40:40.341Z,30.80
2019-05-25T02:43:07.535Z,30.80
2019-05-25T02:45:34.859Z,30.60
2019-05-25T02:48:01.644Z,30.70
2019-05-25T02:50:28.625Z,30.70
2019-05-25T02:52:55.579Z,30.60
2019-05-25T02:55:33.993Z,30.60
2019-05-25T02:57:53.988Z,30.60
2019-05-25T03:00:29.837Z,30.60
2019-05-25T03:02:57.131Z,30.50
2019-05-25T03:05:24.125Z,30.50
2019-05-25T03:07:51.904Z,30.40
2019-05-25T03:10:19.599Z,30.40
2019-05-25T03:12:46.713Z,30.40
2019-05-25T03:15:13.671Z,30.40
2019-05-25T03:17:40.727Z,30.50
2019-05-25T03:20:07.883Z,30.60
2019-05-25T03:22:35.126Z,30.60
2019-05-25T03:25:07.964Z,30.70
2019-05-25T03:27:34.537Z,30.80
2019-05-25T03:30:02.250Z,30.90
2019-05-25T03:32:30.676Z,30.90
2019-05-25T03:34:57.519Z,31.00
2019-05-25T03:37:24.377Z,31.10
2019-05-25T03:39:51.437Z,31.10
2019-05-25T03:42:18.001Z,31.20
2019-05-25T03:44:44.685Z,31.40
2019-05-25T03:47:11.856Z,31.40
2019-05-25T03:49:39.301Z,31.40
2019-05-25T03:52:06.359Z,31.40
2019-05-25T03:54:33.335Z,31.40
2019-05-25T03:57:00.744Z,31.50
2019-05-25T03:59:28.355Z,31.40
2019-05-25T04:01:55.235Z,31.50
2019-05-25T04:04:21.890Z,31.60
2019-05-25T04:06:49.369Z,31.60
2019-05-25T04:09:17.023Z,31.60
2019-05-25T04:11:43.756Z,31.60
2019-05-25T04:14:10.610Z,31.60
2019-05-25T04:16:37.870Z,31.60
2019-05-25T04:19:04.900Z,31.60
2019-05-25T04:21:31.674Z,31.60
2019-05-25T04:23:58.616Z,31.50
2019-05-25T04:26:27.542Z,31.50
2019-05-25T04:28:53.485Z,31.50
2019-05-25T04:31:20.452Z,31.50
2019-05-25T04:33:46.950Z,31.50
2019-05-25T04:36:13.500Z,31.60
2019-05-25T04:38:40.130Z,31.60
2019-05-25T04:41:07.579Z,31.70
2019-05-25T04:43:34.539Z,31.70
2019-05-25T04:46:01.899Z,31.70
2019-05-25T04:48:29.022Z,31.80
2019-05-25T04:50:55.691Z,31.80
2019-05-25T04:53:22.892Z,31.80
2019-05-25T04:55:49.756Z,31.80
2019-05-25T04:58:16.754Z,31.90
2019-05-25T05:00:43.846Z,31.90
2019-05-25T05:03:10.575Z,31.90
2019-05-25T05:05:38.111Z,31.90
2019-05-25T05:08:05.569Z,31.90
2019-05-25T05:10:32.728Z,31.90
2019-05-25T05:12:59.638Z,31.90
2019-05-25T05:15:26.716Z,31.90
2019-05-25T05:17:53.663Z,31.90
2019-05-25T05:20:21.063Z,31.90
2019-05-25T05:22:49.439Z,31.90
2019-05-25T05:25:16.650Z,32.00
2019-05-25T05:27:45.453Z,32.10
2019-05-25T05:30:12.896Z,32.20
2019-05-25T05:32:40.069Z,32.30
2019-05-25T05:35:07.947Z,32.40
2019-05-25T05:37:36.809Z,32.50
2019-05-25T05:40:08.476Z,32.70
2019-05-25T05:42:36.831Z,32.90
2019-05-25T05:45:04.739Z,33.00
2019-05-25T05:47:34.123Z,33.10
2019-05-25T05:50:01.904Z,33.10
2019-05-25T05:52:32.584Z,33.20
2019-05-25T05:55:01.320Z,33.00
2019-05-25T05:57:28.054Z,33.00
2019-05-25T05:59:54.930Z,33.00
2019-05-25T06:02:21.728Z,32.90
2019-05-25T06:04:48.778Z,33.00
2019-05-25T06:07:16.186Z,33.10
2019-05-25T06:09:43.509Z,33.20
2019-05-25T06:12:10.248Z,33.40
2019-05-25T06:14:37.231Z,33.50
2019-05-25T06:17:03.950Z,33.60
2019-05-25T06:19:31.067Z,33.70
2019-05-25T06:21:58.318Z,33.80
2019-05-25T06:24:25.491Z,33.90
2019-05-25T06:26:53.116Z,34.00
2019-05-25T06:29:20.506Z,34.00
2019-05-25T06:31:47.773Z,34.10
2019-05-25T06:34:15.220Z,34.00
2019-05-25T06:36:42.615Z,34.10
2019-05-25T06:39:09.477Z,34.10
2019-05-25T06:41:36.136Z,34.00
2019-05-25T06:44:04.423Z,34.10
2019-05-25T06:46:31.326Z,34.10
2019-05-25T06:48:58.849Z,34.20
2019-05-25T06:51:25.901Z,34.50
2019-05-25T06:53:53.027Z,34.70
2019-05-25T06:56:20.288Z,35.00
2019-05-25T06:58:47.378Z,35.20
2019-05-25T07:01:14.703Z,35.40
2019-05-25T07:03:41.761Z,35.60
2019-05-25T07:06:09.043Z,35.80
2019-05-25T07:08:35.939Z,36.00
2019-05-25T07:11:03.322Z,36.10
2019-05-25T07:13:30.478Z,36.20
2019-05-25T07:15:57.306Z,36.40
2019-05-25T07:18:25.830Z,36.60
2019-05-25T07:20:54.272Z,36.60
2019-05-25T07:23:21.838Z,36.60
2019-05-25T07:25:48.786Z,36.70
2019-05-25T07:28:15.891Z,37.00
2019-05-25T07:30:46.072Z,37.40
2019-05-25T07:33:11.564Z,38.00
2019-05-25T07:35:39.259Z,38.30
2019-05-25T07:38:06.175Z,38.60
2019-05-25T07:40:33.008Z,38.90
2019-05-25T07:43:00.258Z,39.00
2019-05-25T07:45:27.602Z,39.00
2019-05-25T07:47:54.346Z,38.90
2019-05-25T07:50:21.499Z,38.90
2019-05-25T07:52:48.172Z,38.90
2019-05-25T07:55:15.169Z,39.00
2019-05-25T07:57:42.190Z,39.00
2019-05-25T08:00:09.515Z,39.00
2019-05-25T08:02:36.345Z,39.10
2019-05-25T08:05:06.904Z,39.30
2019-05-25T08:07:34.227Z,39.50
2019-05-25T08:10:00.987Z,39.80
2019-05-25T08:12:27.714Z,40.00
2019-05-25T08:14:54.420Z,40.20
2019-05-25T08:17:21.293Z,40.40
2019-05-25T08:19:48.352Z,40.50
2019-05-25T08:22:15.587Z,40.50
2019-05-25T08:24:42.695Z,40.50
2019-05-25T08:27:10.314Z,40.50
2019-05-25T08:29:38.184Z,40.40
2019-05-25T08:32:05.215Z,40.50
2019-05-25T08:34:33.434Z,40.60
2019-05-25T08:37:00.757Z,40.70
2019-05-25T08:39:27.594Z,40.80
2019-05-25T08:41:54.680Z,40.70
2019-05-25T08:44:21.689Z,40.60
2019-05-25T08:46:49.703Z,40.60
2019-05-25T08:49:16.657Z,40.60
2019-05-25T08:51:44.286Z,40.60
2019-05-25T08:54:11.131Z,40.60
2019-05-25T08:56:38.619Z,40.50
2019-05-25T08:59:09.346Z,40.60
2019-05-25T09:01:38.608Z,40.50
2019-05-25T09:04:06.477Z,40.30
2019-05-25T09:06:33.288Z,40.10
2019-05-25T09:09:00.184Z,39.90
2019-05-25T09:11:27.934Z,39.90
2019-05-25T09:13:55.868Z,40.10
2019-05-25T09:16:24.383Z,40.20
2019-05-25T09:18:52.960Z,40.30
2019-05-25T09:21:19.837Z,40.30
2019-05-25T09:23:48.820Z,40.20
2019-05-25T09:26:16.072Z,40.00
2019-05-25T09:28:42.906Z,39.80
2019-05-25T09:31:09.851Z,39.60
2019-05-25T09:33:37.227Z,39.40
2019-05-25T09:36:04.363Z,39.10
2019-05-25T09:38:32.131Z,39.00
2019-05-25T09:40:59.901Z,38.80
2019-05-25T09:43:27.028Z,38.80
2019-05-25T09:45:54.184Z,38.80
2019-05-25T09:48:21.799Z,38.90
2019-05-25T09:50:48.411Z,39.00
2019-05-25T09:53:15.325Z,39.10
2019-05-25T09:55:42.406Z,39.20
2019-05-25T09:58:09.206Z,39.10
2019-05-25T10:00:40.051Z,38.90
2019-05-25T10:03:04.896Z,38.80
2019-05-25T10:05:31.668Z,38.70
2019-05-25T10:07:59.407Z,38.60
2019-05-25T10:10:27.347Z,38.70
2019-05-25T10:12:54.241Z,38.80
2019-05-25T10:15:21.130Z,38.90
2019-05-25T10:17:50.216Z,38.90
2019-05-25T10:20:17.371Z,38.90
2019-05-25T10:22:43.975Z,38.70
2019-05-25T10:25:12.223Z,38.60
2019-05-25T10:27:39.131Z,38.50
2019-05-25T10:30:06.893Z,38.40
2019-05-25T10:32:38.071Z,38.30
2019-05-25T10:35:06.935Z,38.10
2019-05-25T10:37:33.528Z,38.00
2019-05-25T10:40:00.552Z,37.80
2019-05-25T10:42:27.341Z,37.60
2019-05-25T10:44:54.199Z,37.60
2019-05-25T10:47:21.797Z,37.60
2019-05-25T10:49:49.121Z,37.60
2019-05-25T10:52:16.678Z,37.60
2019-05-25T10:54:43.933Z,37.70
2019-05-25T10:57:13.234Z,37.70
2019-05-25T10:59:51.917Z,37.80
2019-05-25T11:02:08.052Z,37.80
2019-05-25T11:04:35.008Z,37.70
2019-05-25T11:07:02.178Z,37.60
2019-05-25T11:09:29.216Z,37.60
2019-05-25T11:11:55.797Z,37.60
2019-05-25T11:14:23.688Z,37.60
2019-05-25T11:16:53.664Z,37.70
2019-05-25T11:19:21.264Z,37.70
2019-05-25T11:21:48.858Z,37.80
2019-05-25T11:24:15.516Z,37.80
2019-05-25T11:26:42.115Z,37.80
2019-05-25T11:29:08.961Z,37.90
2019-05-25T11:31:36.552Z,37.90
2019-05-25T11:34:04.036Z,37.90
2019-05-25T11:36:31.242Z,37.90
2019-05-25T11:38:58.707Z,37.90
2019-05-25T11:41:25.474Z,38.00
2019-05-25T11:43:52.072Z,38.10
2019-05-25T11:46:20.864Z,38.30
2019-05-25T11:49:01.184Z,38.40
2019-05-25T11:51:28.432Z,38.40
2019-05-25T11:53:55.330Z,38.50
2019-05-25T11:56:22.264Z,38.50
2019-05-25T11:58:49.427Z,38.50
2019-05-25T12:01:16.064Z,38.50
2019-05-25T12:03:42.717Z,38.50
2019-05-25T12:06:09.577Z,38.60
2019-05-25T12:08:36.234Z,38.60
2019-05-25T12:11:03.135Z,38.70
2019-05-25T12:13:32.182Z,38.80
2019-05-25T12:15:59.319Z,38.90
2019-05-25T12:18:26.133Z,38.90
2019-05-25T12:20:52.938Z,39.00
2019-05-25T12:23:20.627Z,38.90
2019-05-25T12:25:47.160Z,39.00
2019-05-25T12:28:14.853Z,38.90
2019-05-25T12:30:41.671Z,38.90
2019-05-25T12:33:08.610Z,38.80
2019-05-25T12:35:35.578Z,38.90
2019-05-25T12:38:02.263Z,39.10
2019-05-25T12:40:28.926Z,39.20
2019-05-25T12:42:57.146Z,39.30
2019-05-25T12:45:24.047Z,39.40
2019-05-25T12:47:52.339Z,39.40
2019-05-25T12:50:20.323Z,39.50
2019-05-25T12:52:47.923Z,39.60
2019-05-25T12:55:15.729Z,39.50
2019-05-25T12:57:43.169Z,39.40
2019-05-25T13:00:15.994Z,39.40
2019-05-25T13:02:39.293Z,39.40
2019-05-25T13:05:06.488Z,39.40
2019-05-25T13:07:33.429Z,39.20
2019-05-25T13:10:00.248Z,38.90
2019-05-25T13:12:28.171Z,38.80
2019-05-25T13:14:54.759Z,38.60
2019-05-25T13:17:21.543Z,38.50
2019-05-25T13:19:48.302Z,38.60
2019-05-25T13:22:15.418Z,38.60
2019-05-25T13:24:42.069Z,38.50
2019-05-25T13:27:09.525Z,38.60
2019-05-25T13:29:38.319Z,38.60
2019-05-25T13:32:05.538Z,38.70
2019-05-25T13:34:32.730Z,38.80
2019-05-25T13:37:01.912Z,38.70
2019-05-25T13:39:28.656Z,38.60
2019-05-25T13:41:59.088Z,38.60
2019-05-25T13:44:26.045Z,38.50
2019-05-25T13:46:52.976Z,38.50
2019-05-25T13:49:20.060Z,38.50
2019-05-25T13:51:46.866Z,38.50
2019-05-25T13:54:15.786Z,38.30
2019-05-25T13:56:43.355Z,38.30
2019-05-25T13:59:10.320Z,38.20
2019-05-25T14:01:38.656Z,38.30
2019-05-25T14:04:07.651Z,38.40
2019-05-25T14:06:34.471Z,38.60
2019-05-25T14:09:01.159Z,38.60
2019-05-25T14:11:28.407Z,38.50
2019-05-25T14:13:55.360Z,38.50
2019-05-25T14:16:22.172Z,38.40
2019-05-25T14:18:49.099Z,38.30
2019-05-25T14:21:15.702Z,38.30
2019-05-25T14:23:42.481Z,38.30
2019-05-25T14:26:09.859Z,38.30
2019-05-25T14:28:36.717Z,38.30
2019-05-25T14:31:03.868Z,38.20
2019-05-25T14:33:31.012Z,38.20
2019-05-25T14:35:57.709Z,38.30
2019-05-25T14:38:24.366Z,38.30
2019-05-25T14:40:51.452Z,38.20
2019-05-25T14:43:18.673Z,38.30
2019-05-25T14:45:45.505Z,38.40
2019-05-25T14:48:13.611Z,38.50
2019-05-25T14:50:40.534Z,38.50
2019-05-25T14:53:07.684Z,38.50
2019-05-25T14:55:35.037Z,38.60
2019-05-25T14:58:02.068Z,38.60
2019-05-25T15:00:28.831Z,38.60
2019-05-25T15:02:55.990Z,38.60
2019-05-25T15:05:23.363Z,38.70
2019-05-25T15:07:50.391Z,38.80
2019-05-25T15:10:17.762Z,38.80
2019-05-25T15:12:44.721Z,38.80
2019-05-25T15:15:11.844Z,38.70
2019-05-25T15:17:38.987Z,38.60
2019-05-25T15:20:07.208Z,38.60
2019-05-25T15:22:34.009Z,38.60
2019-05-25T15:25:01.090Z,38.60
2019-05-25T15:27:28.228Z,38.50
2019-05-25T15:29:55.474Z,38.50
2019-05-25T15:32:22.837Z,38.40
2019-05-25T15:34:49.772Z,38.30
2019-05-25T15:37:16.411Z,38.30
2019-05-25T15:39:43.917Z,38.40
2019-05-25T15:42:10.868Z,38.50
2019-05-25T15:44:37.800Z,38.50
2019-05-25T15:47:05.441Z,38.60
2019-05-25T15:49:33.692Z,38.70
2019-05-25T15:52:00.845Z,38.80
2019-05-25T15:54:27.506Z,38.80
2019-05-25T15:56:54.145Z,38.80
2019-05-25T15:59:23.521Z,38.80
2019-05-25T16:01:49.708Z,38.80
2019-05-25T16:04:16.557Z,38.70
2019-05-25T16:06:43.208Z,38.60
2019-05-25T16:09:10.221Z,38.60
2019-05-25T16:11:37.013Z,38.40
2019-05-25T16:14:07.639Z,38.30
2019-05-25T16:16:34.280Z,38.20
2019-05-25T16:19:00.845Z,38.10
2019-05-25T16:21:28.649Z,38.10
2019-05-25T16:23:55.812Z,38.00
2019-05-25T16:26:24.359Z,37.90
2019-05-25T16:28:51.406Z,37.90
2019-05-25T16:31:22.065Z,37.90
2019-05-25T16:33:50.246Z,37.90
2019-05-25T16:36:18.055Z,37.80
2019-05-25T16:38:45.523Z,37.80
2019-05-25T16:41:12.885Z,37.80
2019-05-25T16:43:40.028Z,37.70
2019-05-25T16:46:07.020Z,37.60
2019-05-25T16:48:33.786Z,37.50
2019-05-25T16:51:01.810Z,37.40
2019-05-25T16:53:29.957Z,37.30
2019-05-25T16:55:59.678Z,37.20
2019-05-25T16:58:27.248Z,37.00
2019-05-25T17:00:53.984Z,36.90
2019-05-25T17:03:28.032Z,36.80
2019-05-25T17:05:51.048Z,36.70
2019-05-25T17:08:18.296Z,36.60
2019-05-25T17:10:45.390Z,36.50
2019-05-25T17:13:12.379Z,36.50
2019-05-25T17:15:39.264Z,36.40
2019-05-25T17:18:05.862Z,36.40
2019-05-25T17:20:33.033Z,36.30
2019-05-25T17:23:05.386Z,36.20
2019-05-25T17:25:32.191Z,36.10
2019-05-25T17:27:59.306Z,36.00
2019-05-25T17:30:45.765Z,36.00
2019-05-25T17:33:12.993Z,36.00
2019-05-25T17:35:39.837Z,36.00
2019-05-25T17:38:07.339Z,36.00
2019-05-25T17:40:34.502Z,35.90
2019-05-25T17:43:01.462Z,35.90
2019-05-25T17:45:28.535Z,35.90
2019-05-25T17:47:55.949Z,35.80
2019-05-25T17:50:23.201Z,35.90
2019-05-25T17:52:50.359Z,35.90
2019-05-25T17:55:17.409Z,35.90
2019-05-25T17:57:44.555Z,36.00
2019-05-25T18:00:13.458Z,36.00
2019-05-25T18:02:40.525Z,36.00
2019-05-25T18:05:09.589Z,35.90
2019-05-25T18:07:36.987Z,35.90
2019-05-25T18:10:06.277Z,35.90
2019-05-25T18:12:33.011Z,35.90
2019-05-25T18:15:00.476Z,35.80
2019-05-25T18:17:27.387Z,35.70
2019-05-25T18:19:54.385Z,35.60
2019-05-25T18:22:21.812Z,35.50
2019-05-25T18:24:51.196Z,35.40
2019-05-25T18:27:18.002Z,35.10
2019-05-25T18:29:45.827Z,35.00
2019-05-25T18:32:12.869Z,34.80
2019-05-25T18:34:39.721Z,34.70
2019-05-25T18:37:07.629Z,34.50
2019-05-25T18:39:34.502Z,34.30
2019-05-25T18:42:01.373Z,34.10
2019-05-25T18:44:28.880Z,34.00
2019-05-25T18:46:55.556Z,33.80
2019-05-25T18:49:23.413Z,33.60
2019-05-25T18:51:51.421Z,33.60
2019-05-25T18:54:18.607Z,33.40
2019-05-25T18:56:46.016Z,33.30
2019-05-25T18:59:14.810Z,33.20
2019-05-25T19:01:41.876Z,33.10
2019-05-25T19:04:09.201Z,33.00
2019-05-25T19:06:36.511Z,32.90
2019-05-25T19:09:06.193Z,32.80
2019-05-25T19:11:35.776Z,32.70
2019-05-25T19:14:02.000Z,32.60
2019-05-25T19:16:29.154Z,32.50
2019-05-25T19:18:56.154Z,32.40
2019-05-25T19:21:23.101Z,32.40
2019-05-25T19:23:49.998Z,32.30
2019-05-25T19:26:16.921Z,32.30
2019-05-25T19:28:44.094Z,32.20
2019-05-25T19:31:11.972Z,32.20
2019-05-25T19:33:41.693Z,32.10
2019-05-25T19:36:08.654Z,32.10
2019-05-25T19:38:36.784Z,32.00
2019-05-25T19:41:03.776Z,32.00
2019-05-25T19:43:30.995Z,32.00
2019-05-25T19:45:58.063Z,32.00
2019-05-25T19:48:25.225Z,31.90
2019-05-25T19:50:55.900Z,31.90
2019-05-25T19:53:22.154Z,31.90
2019-05-25T19:55:49.289Z,31.80
2019-05-25T19:58:29.852Z,31.80
2019-05-25T20:00:56.853Z,31.80
2019-05-25T20:03:23.749Z,31.70
2019-05-25T20:05:52.053Z,31.70
2019-05-25T20:08:19.400Z,31.60
2019-05-25T20:10:48.162Z,31.60
2019-05-25T20:13:16.487Z,31.50
2019-05-25T20:15:43.436Z,31.40
2019-05-25T20:18:10.359Z,31.30
2019-05-25T20:20:37.438Z,31.20
2019-05-25T20:23:04.556Z,31.10
2019-05-25T20:25:31.303Z,31.00
2019-05-25T20:27:58.701Z,31.00
2019-05-25T20:30:25.912Z,30.90
2019-05-25T20:32:52.925Z,30.80
2019-05-25T20:35:32.304Z,30.80
2019-05-25T20:37:49.092Z,30.80
2019-05-25T20:40:16.511Z,30.70
2019-05-25T20:42:43.751Z,30.70
2019-05-25T20:45:12.106Z,30.70
2019-05-25T20:47:39.123Z,30.60
2019-05-25T20:50:07.545Z,30.60
2019-05-25T20:52:34.692Z,30.60
2019-05-25T20:55:05.897Z,30.60
2019-05-25T20:57:33.551Z,30.60
2019-05-25T21:00:00.642Z,30.60
2019-05-25T21:02:28.972Z,30.50
2019-05-25T21:04:57.872Z,30.50
2019-05-25T21:07:25.673Z,30.50
2019-05-25T21:09:52.730Z,30.50
2019-05-25T21:12:21.854Z,30.50
2019-05-25T21:14:48.867Z,30.50
2019-05-25T21:17:15.648Z,30.60
2019-05-25T21:19:43.020Z,30.60
2019-05-25T21:22:09.957Z,30.60
2019-05-25T21:24:36.932Z,30.60
2019-05-25T21:27:04.537Z,30.60
2019-05-25T21:29:32.078Z,30.60
2019-05-25T21:31:59.429Z,30.60
2019-05-25T21:34:27.029Z,30.60
2019-05-25T21:36:53.866Z,30.60
2019-05-25T21:39:20.992Z,30.50
2019-05-25T21:41:48.169Z,30.50
2019-05-25T21:44:15.789Z,30.50
2019-05-25T21:46:43.082Z,30.40
2019-05-25T21:49:10.248Z,30.40
2019-05-25T21:51:38.708Z,30.30
2019-05-25T21:54:05.465Z,30.30
2019-05-25T21:56:32.729Z,30.30
2019-05-25T21:58:59.570Z,30.30
2019-05-25T22:01:26.311Z,30.20
2019-05-25T22:03:53.553Z,30.20
2019-05-25T22:06:24.435Z,30.20
2019-05-25T22:08:48.965Z,30.10
2019-05-25T22:11:16.015Z,30.10
2019-05-25T22:13:42.754Z,30.10
2019-05-25T22:16:09.689Z,30.00
2019-05-25T22:18:36.445Z,30.00
2019-05-25T22:21:05.421Z,30.00
2019-05-25T22:23:32.026Z,29.90
2019-05-25T22:25:59.326Z,29.90
2019-05-25T22:28:26.252Z,29.90
2019-05-25T22:30:53.005Z,29.90
2019-05-25T22:33:20.213Z,29.80
2019-05-25T22:35:47.720Z,29.80
2019-05-25T22:38:14.577Z,29.80
2019-05-25T22:40:42.565Z,29.70
2019-05-25T22:43:09.333Z,29.70
2019-05-25T22:45:36.307Z,29.70
2019-05-25T22:48:03.879Z,29.70
2019-05-25T22:50:31.158Z,29.60
2019-05-25T22:52:57.874Z,29.60
2019-05-25T22:55:25.156Z,29.50
2019-05-25T22:57:51.973Z,29.50
2019-05-25T23:00:19.173Z,29.40
2019-05-25T23:02:46.709Z,29.40
2019-05-25T23:05:13.515Z,29.40
2019-05-25T23:07:40.178Z,29.30
2019-05-25T23:10:08.041Z,29.30
2019-05-25T23:12:34.951Z,29.30
2019-05-25T23:15:02.262Z,29.30
2019-05-25T23:17:29.411Z,29.30
2019-05-25T23:19:56.527Z,29.30
2019-05-25T23:22:23.676Z,29.30
2019-05-25T23:24:51.123Z,29.20
2019-05-25T23:27:18.285Z,29.20
2019-05-25T23:29:45.127Z,29.20
2019-05-25T23:32:12.408Z,29.10
2019-05-25T23:34:40.144Z,29.10
2019-05-25T23:37:14.808Z,29.10
2019-05-25T23:39:35.890Z,29.00
2019-05-25T23:42:02.949Z,29.00
2019-05-25T23:44:29.825Z,28.90
2019-05-25T23:46:56.823Z,28.90
2019-05-25T23:49:23.402Z,28.90
2019-05-25T23:51:50.247Z,28.90
2019-05-25T23:54:17.376Z,28.80
2019-05-25T23:56:43.969Z,28.80
2019-05-25T23:59:10.410Z,28.80
